sensor_id;sensor_type;location;lat;lon;timestamp;P1;durP1;ratioP1;P2;durP2;ratioP2
44919;SDS011;30655;53.094;6.072;2022-12-18T00:02:07;124.40;;;44.38;;
44919;SDS011;30655;53.094;6.072;2022-12-18T00:04:42;129.65;;;45.35;;
44919;SDS011;30655;53.094;6.072;2022-12-18T00:07:19;115.57;;;43.90;;
44919;SDS011;30655;53.094;6.072;2022-12-18T00:13:35;126.05;;;42.35;;
44919;SDS011;30655;53.094;6.072;2022-12-18T00:17:36;124.20;;;44.03;;
44919;SDS011;30655;53.094;6.072;2022-12-18T00:19:34;130.90;;;43.65;;
44919;SDS011;30655;53.094;6.072;2022-12-18T00:25:10;129.43;;;44.55;;
44919;SDS011;30655;53.094;6.072;2022-12-18T00:34:17;125.68;;;41.05;;
44919;SDS011;30655;53.094;6.072;2022-12-18T00:36:56;126.28;;;43.38;;
44919;SDS011;30655;53.094;6.072;2022-12-18T00:42:50;126.30;;;42.85;;
44919;SDS011;30655;53.094;6.072;2022-12-18T00:45:25;139.73;;;45.10;;
44919;SDS011;30655;53.094;6.072;2022-12-18T00:48:01;125.35;;;42.00;;
44919;SDS011;30655;53.094;6.072;2022-12-18T00:50:51;136.00;;;45.72;;
44919;SDS011;30655;53.094;6.072;2022-12-18T00:53:53;142.95;;;44.08;;
44919;SDS011;30655;53.094;6.072;2022-12-18T00:56:41;128.13;;;42.55;;
44919;SDS011;30655;53.094;6.072;2022-12-18T00:59:47;128.60;;;42.33;;
44919;SDS011;30655;53.094;6.072;2022-12-18T01:02:31;129.13;;;42.25;;
44919;SDS011;30655;53.094;6.072;2022-12-18T01:05:04;129.50;;;42.72;;
44919;SDS011;30655;53.094;6.072;2022-12-18T01:07:36;130.07;;;41.63;;
44919;SDS011;30655;53.094;6.072;2022-12-18T01:10:15;133.40;;;41.85;;
44919;SDS011;30655;53.094;6.072;2022-12-18T01:13:19;127.53;;;40.45;;
44919;SDS011;30655;53.094;6.072;2022-12-18T01:18:53;124.90;;;40.45;;
44919;SDS011;30655;53.094;6.072;2022-12-18T01:21:22;117.43;;;38.47;;
44919;SDS011;30655;53.094;6.072;2022-12-18T01:23:59;125.28;;;41.95;;
44919;SDS011;30655;53.094;6.072;2022-12-18T01:27:02;116.47;;;38.97;;
44919;SDS011;30655;53.094;6.072;2022-12-18T01:29:36;122.68;;;39.95;;
44919;SDS011;30655;53.094;6.072;2022-12-18T01:32:36;125.57;;;40.10;;
44919;SDS011;30655;53.094;6.072;2022-12-18T01:35:07;119.22;;;40.90;;
44919;SDS011;30655;53.094;6.072;2022-12-18T01:37:37;123.07;;;41.03;;
44919;SDS011;30655;53.094;6.072;2022-12-18T01:40:10;120.05;;;39.03;;
44919;SDS011;30655;53.094;6.072;2022-12-18T01:42:50;122.10;;;37.80;;
44919;SDS011;30655;53.094;6.072;2022-12-18T01:45:29;120.57;;;40.22;;
44919;SDS011;30655;53.094;6.072;2022-12-18T01:47:59;124.38;;;39.92;;
44919;SDS011;30655;53.094;6.072;2022-12-18T01:50:37;115.53;;;37.90;;
44919;SDS011;30655;53.094;6.072;2022-12-18T01:55:51;120.45;;;38.50;;
44919;SDS011;30655;53.094;6.072;2022-12-18T01:58:39;125.68;;;39.67;;
44919;SDS011;30655;53.094;6.072;2022-12-18T02:01:14;114.88;;;37.35;;
44919;SDS011;30655;53.094;6.072;2022-12-18T02:03:44;117.10;;;38.28;;
44919;SDS011;30655;53.094;6.072;2022-12-18T02:09:01;117.40;;;37.63;;
44919;SDS011;30655;53.094;6.072;2022-12-18T02:12:07;113.97;;;37.95;;
44919;SDS011;30655;53.094;6.072;2022-12-18T02:14:51;90.83;;;29.13;;
44919;SDS011;30655;53.094;6.072;2022-12-18T02:17:26;117.65;;;38.45;;
44919;SDS011;30655;53.094;6.072;2022-12-18T02:20:07;111.28;;;38.28;;
44919;SDS011;30655;53.094;6.072;2022-12-18T02:23:03;129.23;;;41.10;;
44919;SDS011;30655;53.094;6.072;2022-12-18T02:26:16;119.32;;;38.55;;
44919;SDS011;30655;53.094;6.072;2022-12-18T02:28:49;121.82;;;38.50;;
44919;SDS011;30655;53.094;6.072;2022-12-18T02:31:22;118.53;;;38.58;;
44919;SDS011;30655;53.094;6.072;2022-12-18T02:33:54;126.13;;;39.28;;
44919;SDS011;30655;53.094;6.072;2022-12-18T02:36:22;120.65;;;39.13;;
44919;SDS011;30655;53.094;6.072;2022-12-18T02:39:09;121.25;;;38.17;;
44919;SDS011;30655;53.094;6.072;2022-12-18T02:41:44;122.82;;;37.70;;
44919;SDS011;30655;53.094;6.072;2022-12-18T02:44:21;115.50;;;38.75;;
44919;SDS011;30655;53.094;6.072;2022-12-18T02:46:59;119.30;;;38.45;;
44919;SDS011;30655;53.094;6.072;2022-12-18T02:49:45;116.97;;;38.25;;
44919;SDS011;30655;53.094;6.072;2022-12-18T02:52:31;118.63;;;37.55;;
44919;SDS011;30655;53.094;6.072;2022-12-18T02:55:12;116.88;;;37.83;;
44919;SDS011;30655;53.094;6.072;2022-12-18T02:57:59;124.10;;;39.58;;
44919;SDS011;30655;53.094;6.072;2022-12-18T03:00:35;123.70;;;38.03;;
44919;SDS011;30655;53.094;6.072;2022-12-18T03:03:10;121.82;;;39.45;;
44919;SDS011;30655;53.094;6.072;2022-12-18T03:05:55;125.57;;;40.05;;
44919;SDS011;30655;53.094;6.072;2022-12-18T03:08:30;128.15;;;40.15;;
44919;SDS011;30655;53.094;6.072;2022-12-18T03:11:07;120.55;;;38.88;;
44919;SDS011;30655;53.094;6.072;2022-12-18T03:13:44;135.25;;;41.53;;
44919;SDS011;30655;53.094;6.072;2022-12-18T03:16:19;130.82;;;40.67;;
44919;SDS011;30655;53.094;6.072;2022-12-18T03:18:51;120.88;;;38.00;;
44919;SDS011;30655;53.094;6.072;2022-12-18T03:21:32;133.63;;;40.55;;
44919;SDS011;30655;53.094;6.072;2022-12-18T03:24:07;120.10;;;39.67;;
44919;SDS011;30655;53.094;6.072;2022-12-18T03:26:45;140.98;;;41.80;;
44919;SDS011;30655;53.094;6.072;2022-12-18T03:29:19;127.82;;;41.17;;
44919;SDS011;30655;53.094;6.072;2022-12-18T03:31:57;132.30;;;41.35;;
44919;SDS011;30655;53.094;6.072;2022-12-18T03:34:32;97.75;;;29.70;;
44919;SDS011;30655;53.094;6.072;2022-12-18T03:37:05;128.80;;;42.25;;
44919;SDS011;30655;53.094;6.072;2022-12-18T03:39:33;131.65;;;40.58;;
44919;SDS011;30655;53.094;6.072;2022-12-18T03:42:03;129.45;;;39.17;;
44919;SDS011;30655;53.094;6.072;2022-12-18T03:44:39;122.47;;;40.30;;
44919;SDS011;30655;53.094;6.072;2022-12-18T03:47:12;136.88;;;40.85;;
44919;SDS011;30655;53.094;6.072;2022-12-18T03:49:46;123.88;;;40.67;;
44919;SDS011;30655;53.094;6.072;2022-12-18T03:52:19;124.18;;;40.90;;
44919;SDS011;30655;53.094;6.072;2022-12-18T03:54:50;125.22;;;41.38;;
44919;SDS011;30655;53.094;6.072;2022-12-18T03:57:25;127.97;;;41.47;;
44919;SDS011;30655;53.094;6.072;2022-12-18T04:00:04;132.27;;;41.13;;
44919;SDS011;30655;53.094;6.072;2022-12-18T04:02:36;139.68;;;42.83;;
44919;SDS011;30655;53.094;6.072;2022-12-18T04:05:07;120.28;;;41.92;;
44919;SDS011;30655;53.094;6.072;2022-12-18T04:07:37;134.30;;;42.67;;
44919;SDS011;30655;53.094;6.072;2022-12-18T04:10:05;126.68;;;43.22;;
44919;SDS011;30655;53.094;6.072;2022-12-18T04:12:36;128.17;;;42.67;;
44919;SDS011;30655;53.094;6.072;2022-12-18T04:15:06;127.78;;;41.85;;
44919;SDS011;30655;53.094;6.072;2022-12-18T04:17:37;130.38;;;41.97;;
44919;SDS011;30655;53.094;6.072;2022-12-18T04:20:08;128.00;;;41.00;;
44919;SDS011;30655;53.094;6.072;2022-12-18T04:22:35;128.02;;;41.95;;
44919;SDS011;30655;53.094;6.072;2022-12-18T04:25:03;119.45;;;39.90;;
44919;SDS011;30655;53.094;6.072;2022-12-18T04:27:30;118.47;;;40.08;;
44919;SDS011;30655;53.094;6.072;2022-12-18T04:30:00;111.07;;;39.80;;
44919;SDS011;30655;53.094;6.072;2022-12-18T04:32:32;112.83;;;37.47;;
44919;SDS011;30655;53.094;6.072;2022-12-18T04:35:04;113.00;;;40.05;;
44919;SDS011;30655;53.094;6.072;2022-12-18T04:37:32;108.30;;;38.85;;
44919;SDS011;30655;53.094;6.072;2022-12-18T04:40:03;108.75;;;37.95;;
44919;SDS011;30655;53.094;6.072;2022-12-18T04:42:33;99.35;;;36.00;;
44919;SDS011;30655;53.094;6.072;2022-12-18T04:45:00;100.15;;;35.97;;
44919;SDS011;30655;53.094;6.072;2022-12-18T04:47:27;97.60;;;36.97;;
44919;SDS011;30655;53.094;6.072;2022-12-18T04:50:07;101.97;;;36.08;;
44919;SDS011;30655;53.094;6.072;2022-12-18T04:52:35;95.63;;;33.67;;
44919;SDS011;30655;53.094;6.072;2022-12-18T04:55:08;103.50;;;36.10;;
44919;SDS011;30655;53.094;6.072;2022-12-18T04:57:36;100.75;;;35.85;;
44919;SDS011;30655;53.094;6.072;2022-12-18T05:00:04;93.72;;;35.40;;
44919;SDS011;30655;53.094;6.072;2022-12-18T05:02:33;106.85;;;38.05;;
44919;SDS011;30655;53.094;6.072;2022-12-18T05:05:04;97.38;;;35.97;;
44919;SDS011;30655;53.094;6.072;2022-12-18T05:07:33;94.95;;;35.85;;
44919;SDS011;30655;53.094;6.072;2022-12-18T05:10:00;96.80;;;35.92;;
44919;SDS011;30655;53.094;6.072;2022-12-18T05:12:31;96.60;;;36.00;;
44919;SDS011;30655;53.094;6.072;2022-12-18T05:14:58;103.68;;;35.03;;
44919;SDS011;30655;53.094;6.072;2022-12-18T05:17:25;105.88;;;36.30;;
44919;SDS011;30655;53.094;6.072;2022-12-18T05:19:53;92.55;;;33.75;;
44919;SDS011;30655;53.094;6.072;2022-12-18T05:22:20;90.18;;;34.85;;
44919;SDS011;30655;53.094;6.072;2022-12-18T05:24:48;92.68;;;34.67;;
44919;SDS011;30655;53.094;6.072;2022-12-18T05:27:15;90.78;;;32.33;;
44919;SDS011;30655;53.094;6.072;2022-12-18T05:29:42;83.53;;;33.63;;
44919;SDS011;30655;53.094;6.072;2022-12-18T05:32:09;93.35;;;32.65;;
44919;SDS011;30655;53.094;6.072;2022-12-18T05:34:38;86.95;;;31.27;;
44919;SDS011;30655;53.094;6.072;2022-12-18T05:37:09;84.63;;;32.75;;
44919;SDS011;30655;53.094;6.072;2022-12-18T05:39:36;83.75;;;31.95;;
44919;SDS011;30655;53.094;6.072;2022-12-18T05:42:04;81.43;;;31.70;;
44919;SDS011;30655;53.094;6.072;2022-12-18T05:44:35;84.38;;;30.63;;
44919;SDS011;30655;53.094;6.072;2022-12-18T05:47:01;84.72;;;32.08;;
44919;SDS011;30655;53.094;6.072;2022-12-18T05:49:29;84.22;;;31.50;;
44919;SDS011;30655;53.094;6.072;2022-12-18T05:51:56;77.13;;;30.38;;
44919;SDS011;30655;53.094;6.072;2022-12-18T05:54:26;79.18;;;29.45;;
44919;SDS011;30655;53.094;6.072;2022-12-18T05:56:53;75.20;;;30.42;;
44919;SDS011;30655;53.094;6.072;2022-12-18T05:59:20;72.35;;;29.88;;
44919;SDS011;30655;53.094;6.072;2022-12-18T06:01:47;78.97;;;29.60;;
44919;SDS011;30655;53.094;6.072;2022-12-18T06:04:14;80.65;;;28.73;;
44919;SDS011;30655;53.094;6.072;2022-12-18T06:06:41;74.30;;;29.65;;
44919;SDS011;30655;53.094;6.072;2022-12-18T06:09:13;73.35;;;27.90;;
44919;SDS011;30655;53.094;6.072;2022-12-18T06:11:44;73.15;;;28.10;;
44919;SDS011;30655;53.094;6.072;2022-12-18T06:14:10;73.25;;;28.50;;
44919;SDS011;30655;53.094;6.072;2022-12-18T06:16:37;76.18;;;28.60;;
44919;SDS011;30655;53.094;6.072;2022-12-18T06:19:05;70.60;;;27.98;;
44919;SDS011;30655;53.094;6.072;2022-12-18T06:21:40;72.93;;;28.92;;
44919;SDS011;30655;53.094;6.072;2022-12-18T06:24:06;68.30;;;27.95;;
44919;SDS011;30655;53.094;6.072;2022-12-18T06:26:34;74.40;;;27.35;;
44919;SDS011;30655;53.094;6.072;2022-12-18T06:29:05;71.97;;;27.83;;
44919;SDS011;30655;53.094;6.072;2022-12-18T06:31:32;76.30;;;28.67;;
44919;SDS011;30655;53.094;6.072;2022-12-18T06:34:08;66.15;;;26.17;;
44919;SDS011;30655;53.094;6.072;2022-12-18T06:36:36;63.33;;;26.88;;
44919;SDS011;30655;53.094;6.072;2022-12-18T06:39:04;58.90;;;23.80;;
44919;SDS011;30655;53.094;6.072;2022-12-18T06:41:34;68.22;;;26.33;;
44919;SDS011;30655;53.094;6.072;2022-12-18T06:44:08;60.63;;;25.50;;
44919;SDS011;30655;53.094;6.072;2022-12-18T06:46:36;65.13;;;25.60;;
44919;SDS011;30655;53.094;6.072;2022-12-18T06:49:03;57.35;;;24.85;;
44919;SDS011;30655;53.094;6.072;2022-12-18T06:51:31;66.57;;;25.00;;
44919;SDS011;30655;53.094;6.072;2022-12-18T06:54:01;64.72;;;24.58;;
44919;SDS011;30655;53.094;6.072;2022-12-18T06:56:28;43.33;;;17.88;;
44919;SDS011;30655;53.094;6.072;2022-12-18T06:58:56;71.20;;;26.23;;
44919;SDS011;30655;53.094;6.072;2022-12-18T07:01:24;62.10;;;23.75;;
44919;SDS011;30655;53.094;6.072;2022-12-18T07:03:52;58.90;;;24.52;;
44919;SDS011;30655;53.094;6.072;2022-12-18T07:06:20;62.25;;;25.15;;
44919;SDS011;30655;53.094;6.072;2022-12-18T07:08:51;62.47;;;24.73;;
44919;SDS011;30655;53.094;6.072;2022-12-18T07:11:19;64.05;;;24.33;;
44919;SDS011;30655;53.094;6.072;2022-12-18T07:13:48;61.05;;;25.38;;
44919;SDS011;30655;53.094;6.072;2022-12-18T07:16:20;58.97;;;24.70;;
44919;SDS011;30655;53.094;6.072;2022-12-18T07:18:55;60.92;;;24.55;;
44919;SDS011;30655;53.094;6.072;2022-12-18T07:21:23;60.30;;;23.10;;
44919;SDS011;30655;53.094;6.072;2022-12-18T07:23:50;57.17;;;24.52;;
44919;SDS011;30655;53.094;6.072;2022-12-18T07:26:19;54.72;;;22.90;;
44919;SDS011;30655;53.094;6.072;2022-12-18T07:28:50;55.20;;;23.05;;
44919;SDS011;30655;53.094;6.072;2022-12-18T07:31:21;61.97;;;24.88;;
44919;SDS011;30655;53.094;6.072;2022-12-18T07:33:49;56.03;;;22.88;;
44919;SDS011;30655;53.094;6.072;2022-12-18T07:36:18;52.72;;;22.17;;
44919;SDS011;30655;53.094;6.072;2022-12-18T07:38:48;59.97;;;23.25;;
44919;SDS011;30655;53.094;6.072;2022-12-18T07:41:16;58.40;;;22.35;;
44919;SDS011;30655;53.094;6.072;2022-12-18T07:43:43;54.30;;;22.63;;
44919;SDS011;30655;53.094;6.072;2022-12-18T07:46:14;58.85;;;22.48;;
44919;SDS011;30655;53.094;6.072;2022-12-18T07:48:41;37.70;;;16.08;;
44919;SDS011;30655;53.094;6.072;2022-12-18T07:51:10;55.92;;;22.88;;
44919;SDS011;30655;53.094;6.072;2022-12-18T07:53:43;50.95;;;21.75;;
44919;SDS011;30655;53.094;6.072;2022-12-18T07:56:13;49.42;;;22.38;;
44919;SDS011;30655;53.094;6.072;2022-12-18T07:58:57;56.28;;;21.02;;
44919;SDS011;30655;53.094;6.072;2022-12-18T08:01:29;49.13;;;21.48;;
44919;SDS011;30655;53.094;6.072;2022-12-18T08:04:00;50.30;;;22.20;;
44919;SDS011;30655;53.094;6.072;2022-12-18T08:06:34;51.70;;;21.45;;
44919;SDS011;30655;53.094;6.072;2022-12-18T08:09:04;56.10;;;23.30;;
44919;SDS011;30655;53.094;6.072;2022-12-18T08:11:34;50.25;;;20.98;;
44919;SDS011;30655;53.094;6.072;2022-12-18T08:14:02;49.53;;;21.05;;
44919;SDS011;30655;53.094;6.072;2022-12-18T08:16:39;46.03;;;21.15;;
44919;SDS011;30655;53.094;6.072;2022-12-18T08:22:23;43.00;;;20.75;;
44919;SDS011;30655;53.094;6.072;2022-12-18T08:28:00;44.55;;;21.15;;
44919;SDS011;30655;53.094;6.072;2022-12-18T08:30:42;48.83;;;20.50;;
44919;SDS011;30655;53.094;6.072;2022-12-18T08:36:31;44.72;;;20.98;;
44919;SDS011;30655;53.094;6.072;2022-12-18T08:38:58;47.45;;;22.13;;
44919;SDS011;30655;53.094;6.072;2022-12-18T08:41:29;46.47;;;20.70;;
44919;SDS011;30655;53.094;6.072;2022-12-18T08:43:59;47.53;;;20.08;;
44919;SDS011;30655;53.094;6.072;2022-12-18T08:46:27;51.90;;;21.67;;
44919;SDS011;30655;53.094;6.072;2022-12-18T08:49:04;42.53;;;20.13;;
44919;SDS011;30655;53.094;6.072;2022-12-18T08:51:34;37.50;;;19.60;;
44919;SDS011;30655;53.094;6.072;2022-12-18T08:54:01;43.72;;;19.70;;
44919;SDS011;30655;53.094;6.072;2022-12-18T08:56:33;39.58;;;19.52;;
44919;SDS011;30655;53.094;6.072;2022-12-18T08:59:00;34.97;;;17.63;;
44919;SDS011;30655;53.094;6.072;2022-12-18T09:01:28;39.60;;;19.15;;
44919;SDS011;30655;53.094;6.072;2022-12-18T09:03:57;35.38;;;17.08;;
44919;SDS011;30655;53.094;6.072;2022-12-18T09:06:24;33.20;;;16.63;;
44919;SDS011;30655;53.094;6.072;2022-12-18T09:08:52;32.33;;;17.20;;
44919;SDS011;30655;53.094;6.072;2022-12-18T09:11:20;32.78;;;16.45;;
44919;SDS011;30655;53.094;6.072;2022-12-18T09:13:50;29.02;;;16.00;;
44919;SDS011;30655;53.094;6.072;2022-12-18T09:16:19;27.58;;;15.45;;
44919;SDS011;30655;53.094;6.072;2022-12-18T09:18:50;32.53;;;16.40;;
44919;SDS011;30655;53.094;6.072;2022-12-18T09:21:18;30.52;;;16.90;;
44919;SDS011;30655;53.094;6.072;2022-12-18T09:23:48;29.20;;;15.73;;
44919;SDS011;30655;53.094;6.072;2022-12-18T09:26:16;27.50;;;15.68;;
44919;SDS011;30655;53.094;6.072;2022-12-18T09:28:43;31.08;;;16.85;;
44919;SDS011;30655;53.094;6.072;2022-12-18T09:31:13;30.75;;;16.95;;
44919;SDS011;30655;53.094;6.072;2022-12-18T09:33:40;29.98;;;16.60;;
44919;SDS011;30655;53.094;6.072;2022-12-18T09:36:08;33.13;;;16.70;;
44919;SDS011;30655;53.094;6.072;2022-12-18T09:38:37;28.77;;;15.85;;
44919;SDS011;30655;53.094;6.072;2022-12-18T09:41:05;26.45;;;16.27;;
44919;SDS011;30655;53.094;6.072;2022-12-18T09:43:52;27.88;;;16.30;;
44919;SDS011;30655;53.094;6.072;2022-12-18T09:46:26;27.95;;;15.80;;
44919;SDS011;30655;53.094;6.072;2022-12-18T09:48:58;26.25;;;15.48;;
44919;SDS011;30655;53.094;6.072;2022-12-18T09:51:29;27.70;;;15.35;;
44919;SDS011;30655;53.094;6.072;2022-12-18T09:54:03;23.52;;;14.90;;
44919;SDS011;30655;53.094;6.072;2022-12-18T09:56:34;25.58;;;15.00;;
44919;SDS011;30655;53.094;6.072;2022-12-18T09:59:04;24.92;;;14.75;;
44919;SDS011;30655;53.094;6.072;2022-12-18T10:01:32;25.83;;;14.75;;
44919;SDS011;30655;53.094;6.072;2022-12-18T10:04:09;24.52;;;15.13;;
44919;SDS011;30655;53.094;6.072;2022-12-18T10:06:37;23.88;;;14.43;;
44919;SDS011;30655;53.094;6.072;2022-12-18T10:09:11;24.63;;;15.48;;
44919;SDS011;30655;53.094;6.072;2022-12-18T10:11:48;28.65;;;14.80;;
44919;SDS011;30655;53.094;6.072;2022-12-18T10:14:22;30.48;;;14.35;;
44919;SDS011;30655;53.094;6.072;2022-12-18T10:16:58;20.33;;;13.10;;
44919;SDS011;30655;53.094;6.072;2022-12-18T10:19:33;21.30;;;12.95;;
44919;SDS011;30655;53.094;6.072;2022-12-18T10:22:10;17.13;;;12.10;;
44919;SDS011;30655;53.094;6.072;2022-12-18T10:24:42;19.52;;;12.75;;
44919;SDS011;30655;53.094;6.072;2022-12-18T10:27:17;24.92;;;12.90;;
44919;SDS011;30655;53.094;6.072;2022-12-18T10:29:48;19.92;;;13.77;;
44919;SDS011;30655;53.094;6.072;2022-12-18T10:32:17;22.58;;;13.63;;
44919;SDS011;30655;53.094;6.072;2022-12-18T10:37:14;20.35;;;12.50;;
44919;SDS011;30655;53.094;6.072;2022-12-18T10:39:43;24.90;;;13.07;;
44919;SDS011;30655;53.094;6.072;2022-12-18T10:42:11;24.50;;;13.88;;
44919;SDS011;30655;53.094;6.072;2022-12-18T10:44:43;24.88;;;15.10;;
44919;SDS011;30655;53.094;6.072;2022-12-18T10:47:12;23.65;;;15.18;;
44919;SDS011;30655;53.094;6.072;2022-12-18T10:49:46;23.88;;;15.60;;
44919;SDS011;30655;53.094;6.072;2022-12-18T10:52:17;26.70;;;15.38;;
44919;SDS011;30655;53.094;6.072;2022-12-18T10:54:46;18.55;;;11.90;;
44919;SDS011;30655;53.094;6.072;2022-12-18T10:57:32;26.23;;;16.60;;
44919;SDS011;30655;53.094;6.072;2022-12-18T11:00:13;27.20;;;16.40;;
44919;SDS011;30655;53.094;6.072;2022-12-18T11:02:48;26.10;;;17.13;;
44919;SDS011;30655;53.094;6.072;2022-12-18T11:05:27;22.63;;;13.80;;
44919;SDS011;30655;53.094;6.072;2022-12-18T11:07:55;18.45;;;13.15;;
44919;SDS011;30655;53.094;6.072;2022-12-18T11:10:26;20.23;;;12.90;;
44919;SDS011;30655;53.094;6.072;2022-12-18T11:12:55;18.92;;;12.43;;
44919;SDS011;30655;53.094;6.072;2022-12-18T11:15:34;20.38;;;12.45;;
44919;SDS011;30655;53.094;6.072;2022-12-18T11:18:01;19.90;;;13.93;;
44919;SDS011;30655;53.094;6.072;2022-12-18T11:20:31;19.55;;;12.82;;
44919;SDS011;30655;53.094;6.072;2022-12-18T11:23:02;20.30;;;13.15;;
44919;SDS011;30655;53.094;6.072;2022-12-18T11:25:31;21.50;;;13.07;;
44919;SDS011;30655;53.094;6.072;2022-12-18T11:28:03;25.50;;;14.07;;
44919;SDS011;30655;53.094;6.072;2022-12-18T11:30:32;17.88;;;11.38;;
44919;SDS011;30655;53.094;6.072;2022-12-18T11:33:03;19.33;;;12.60;;
44919;SDS011;30655;53.094;6.072;2022-12-18T11:35:45;18.65;;;10.85;;
44919;SDS011;30655;53.094;6.072;2022-12-18T11:38:19;17.35;;;11.55;;
44919;SDS011;30655;53.094;6.072;2022-12-18T11:40:50;16.88;;;10.82;;
44919;SDS011;30655;53.094;6.072;2022-12-18T11:43:23;21.92;;;13.00;;
44919;SDS011;30655;53.094;6.072;2022-12-18T11:45:56;16.45;;;11.20;;
44919;SDS011;30655;53.094;6.072;2022-12-18T11:48:29;17.60;;;11.80;;
44919;SDS011;30655;53.094;6.072;2022-12-18T11:51:02;17.65;;;11.15;;
44919;SDS011;30655;53.094;6.072;2022-12-18T11:53:34;14.57;;;10.57;;
44919;SDS011;30655;53.094;6.072;2022-12-18T11:56:03;17.52;;;11.20;;
44919;SDS011;30655;53.094;6.072;2022-12-18T11:58:42;14.40;;;10.32;;
44919;SDS011;30655;53.094;6.072;2022-12-18T12:01:25;17.08;;;10.80;;
44919;SDS011;30655;53.094;6.072;2022-12-18T12:04:14;15.38;;;10.98;;
44919;SDS011;30655;53.094;6.072;2022-12-18T12:06:57;17.80;;;10.68;;
44919;SDS011;30655;53.094;6.072;2022-12-18T12:09:34;12.98;;;10.30;;
44919;SDS011;30655;53.094;6.072;2022-12-18T12:12:21;12.00;;;10.00;;
44919;SDS011;30655;53.094;6.072;2022-12-18T12:15:25;13.27;;;9.82;;
44919;SDS011;30655;53.094;6.072;2022-12-18T12:18:01;15.27;;;10.05;;
44919;SDS011;30655;53.094;6.072;2022-12-18T12:20:41;13.15;;;8.80;;
44919;SDS011;30655;53.094;6.072;2022-12-18T12:23:20;12.50;;;9.27;;
44919;SDS011;30655;53.094;6.072;2022-12-18T12:25:56;12.20;;;9.25;;
44919;SDS011;30655;53.094;6.072;2022-12-18T12:28:35;11.45;;;8.07;;
44919;SDS011;30655;53.094;6.072;2022-12-18T12:31:17;10.93;;;8.15;;
44919;SDS011;30655;53.094;6.072;2022-12-18T12:33:59;9.00;;;8.10;;
44919;SDS011;30655;53.094;6.072;2022-12-18T12:36:35;8.98;;;7.80;;
44919;SDS011;30655;53.094;6.072;2022-12-18T12:39:10;9.88;;;7.65;;
44919;SDS011;30655;53.094;6.072;2022-12-18T12:41:42;9.57;;;7.07;;
44919;SDS011;30655;53.094;6.072;2022-12-18T12:44:15;11.90;;;7.85;;
44919;SDS011;30655;53.094;6.072;2022-12-18T12:46:46;11.18;;;7.25;;
44919;SDS011;30655;53.094;6.072;2022-12-18T12:49:17;9.82;;;6.95;;
44919;SDS011;30655;53.094;6.072;2022-12-18T12:51:49;8.50;;;6.68;;
44919;SDS011;30655;53.094;6.072;2022-12-18T12:54:28;8.68;;;7.72;;
44919;SDS011;30655;53.094;6.072;2022-12-18T12:57:08;8.00;;;6.95;;
44919;SDS011;30655;53.094;6.072;2022-12-18T13:00:10;7.07;;;6.38;;
44919;SDS011;30655;53.094;6.072;2022-12-18T13:03:15;8.50;;;6.53;;
44919;SDS011;30655;53.094;6.072;2022-12-18T13:06:00;9.48;;;7.30;;
44919;SDS011;30655;53.094;6.072;2022-12-18T13:08:53;6.47;;;5.88;;
44919;SDS011;30655;53.094;6.072;2022-12-18T13:11:39;9.00;;;6.20;;
44919;SDS011;30655;53.094;6.072;2022-12-18T13:14:12;6.68;;;6.03;;
44919;SDS011;30655;53.094;6.072;2022-12-18T13:20:17;8.48;;;5.35;;
44919;SDS011;30655;53.094;6.072;2022-12-18T13:23:17;5.93;;;5.25;;
44919;SDS011;30655;53.094;6.072;2022-12-18T13:29:15;7.28;;;6.00;;
44919;SDS011;30655;53.094;6.072;2022-12-18T13:32:25;5.88;;;5.38;;
44919;SDS011;30655;53.094;6.072;2022-12-18T13:38:16;5.10;;;4.60;;
44919;SDS011;30655;53.094;6.072;2022-12-18T13:43:52;6.22;;;5.07;;
44919;SDS011;30655;53.094;6.072;2022-12-18T13:46:21;6.03;;;5.45;;
44919;SDS011;30655;53.094;6.072;2022-12-18T13:53:00;7.13;;;5.28;;
44919;SDS011;30655;53.094;6.072;2022-12-18T13:55:16;5.57;;;5.07;;
44919;SDS011;30655;53.094;6.072;2022-12-18T13:58:20;5.43;;;4.93;;
44919;SDS011;30655;53.094;6.072;2022-12-18T14:01:12;5.45;;;4.95;;
44919;SDS011;30655;53.094;6.072;2022-12-18T14:10:29;5.70;;;5.20;;
44919;SDS011;30655;53.094;6.072;2022-12-18T14:27:44;7.28;;;5.75;;
44919;SDS011;30655;53.094;6.072;2022-12-18T14:31:04;6.07;;;5.45;;
44919;SDS011;30655;53.094;6.072;2022-12-18T14:34:34;11.00;;;5.88;;
44919;SDS011;30655;53.094;6.072;2022-12-18T14:41:10;8.13;;;6.10;;
44919;SDS011;30655;53.094;6.072;2022-12-18T14:43:56;17.20;;;8.13;;
44919;SDS011;30655;53.094;6.072;2022-12-18T14:46:59;7.85;;;5.97;;
44919;SDS011;30655;53.094;6.072;2022-12-18T14:50:11;7.13;;;6.07;;
44919;SDS011;30655;53.094;6.072;2022-12-18T14:52:45;6.75;;;5.90;;
44919;SDS011;30655;53.094;6.072;2022-12-18T14:55:14;6.63;;;5.85;;
44919;SDS011;30655;53.094;6.072;2022-12-18T14:57:45;9.70;;;6.07;;
44919;SDS011;30655;53.094;6.072;2022-12-18T15:00:18;6.90;;;6.20;;
44919;SDS011;30655;53.094;6.072;2022-12-18T15:02:48;7.50;;;5.68;;
44919;SDS011;30655;53.094;6.072;2022-12-18T15:05:20;6.50;;;5.85;;
44919;SDS011;30655;53.094;6.072;2022-12-18T15:07:51;8.35;;;6.50;;
44919;SDS011;30655;53.094;6.072;2022-12-18T15:10:20;6.90;;;6.18;;
44919;SDS011;30655;53.094;6.072;2022-12-18T15:12:48;7.30;;;6.47;;
44919;SDS011;30655;53.094;6.072;2022-12-18T15:18:13;9.40;;;6.82;;
44919;SDS011;30655;53.094;6.072;2022-12-18T15:20:42;6.82;;;6.20;;
44919;SDS011;30655;53.094;6.072;2022-12-18T15:23:13;8.25;;;6.05;;
44919;SDS011;30655;53.094;6.072;2022-12-18T15:25:44;8.15;;;6.28;;
44919;SDS011;30655;53.094;6.072;2022-12-18T15:28:18;6.78;;;6.10;;
44919;SDS011;30655;53.094;6.072;2022-12-18T15:30:59;6.38;;;5.55;;
44919;SDS011;30655;53.094;6.072;2022-12-18T15:33:30;7.15;;;6.45;;
44919;SDS011;30655;53.094;6.072;2022-12-18T15:35:58;6.32;;;5.72;;
44919;SDS011;30655;53.094;6.072;2022-12-18T15:38:25;6.78;;;6.10;;
44919;SDS011;30655;53.094;6.072;2022-12-18T15:40:53;9.27;;;5.85;;
44919;SDS011;30655;53.094;6.072;2022-12-18T15:43:20;7.30;;;6.30;;
44919;SDS011;30655;53.094;6.072;2022-12-18T15:45:48;5.88;;;5.30;;
44919;SDS011;30655;53.094;6.072;2022-12-18T15:48:19;7.20;;;6.32;;
44919;SDS011;30655;53.094;6.072;2022-12-18T15:50:48;6.97;;;5.70;;
44919;SDS011;30655;53.094;6.072;2022-12-18T15:53:16;7.13;;;6.40;;
44919;SDS011;30655;53.094;6.072;2022-12-18T15:55:43;7.72;;;6.88;;
44919;SDS011;30655;53.094;6.072;2022-12-18T15:58:17;8.05;;;6.22;;
44919;SDS011;30655;53.094;6.072;2022-12-18T16:01:17;6.95;;;6.18;;
44919;SDS011;30655;53.094;6.072;2022-12-18T16:14:12;9.25;;;7.18;;
44919;SDS011;30655;53.094;6.072;2022-12-18T16:16:45;12.50;;;7.60;;
44919;SDS011;30655;53.094;6.072;2022-12-18T16:19:12;8.75;;;6.90;;
44919;SDS011;30655;53.094;6.072;2022-12-18T16:21:40;8.48;;;7.68;;
44919;SDS011;30655;53.094;6.072;2022-12-18T16:24:10;11.27;;;7.43;;
44919;SDS011;30655;53.094;6.072;2022-12-18T16:26:41;10.68;;;7.30;;
44919;SDS011;30655;53.094;6.072;2022-12-18T16:29:08;8.20;;;7.03;;
44919;SDS011;30655;53.094;6.072;2022-12-18T16:31:35;8.07;;;7.28;;
44919;SDS011;30655;53.094;6.072;2022-12-18T16:34:12;9.57;;;7.25;;
44919;SDS011;30655;53.094;6.072;2022-12-18T16:36:52;7.85;;;7.03;;
44919;SDS011;30655;53.094;6.072;2022-12-18T16:39:20;7.40;;;6.80;;